sensor_id;sensor_type;location;lat;lon;timestamp;pressure;altitude;pressure_sealevel;temperature;humidity
72370;BME280;60343;-32.030;115.880;2023-04-09T00:02:12;101652.19;;;18.73;70.40
72370;BME280;60343;-32.030;115.880;2023-04-09T00:04:47;101658.28;;;19.74;68.70
72370;BME280;60343;-32.030;115.880;2023-04-09T00:07:27;101654.47;;;20.52;64.26
72370;BME280;60343;-32.030;115.880;2023-04-09T00:10:01;101660.94;;;21.27;61.04
72370;BME280;60343;-32.030;115.880;2023-04-09T00:12:36;101653.31;;;21.79;59.93
72370;BME280;60343;-32.030;115.880;2023-04-09T00:15:11;101655.78;;;22.05;58.29
72370;BME280;60343;-32.030;115.880;2023-04-09T00:17:45;101669.19;;;22.25;57.00
72370;BME280;60343;-32.030;115.880;2023-04-09T00:20:20;101672.19;;;21.80;58.30
72370;BME280;60343;-32.030;115.880;2023-04-09T00:23:00;101664.19;;;21.61;59.33
72370;BME280;60343;-32.030;115.880;2023-04-09T00:25:43;101670.19;;;22.12;57.92
72370;BME280;60343;-32.030;115.880;2023-04-09T00:28:26;101673.03;;;21.81;58.74
72370;BME280;60343;-32.030;115.880;2023-04-09T00:31:01;101673.97;;;22.30;58.03
72370;BME280;60343;-32.030;115.880;2023-04-09T00:33:36;101673.25;;;22.71;56.04
72370;BME280;60343;-32.030;115.880;2023-04-09T00:36:10;101676.50;;;23.44;54.04
72370;BME280;60343;-32.030;115.880;2023-04-09T00:38:51;101674.06;;;23.77;52.29
72370;BME280;60343;-32.030;115.880;2023-04-09T00:41:26;101670.16;;;23.62;52.53
72370;BME280;60343;-32.030;115.880;2023-04-09T00:44:00;101683.16;;;22.83;53.79
72370;BME280;60343;-32.030;115.880;2023-04-09T00:46:35;101683.75;;;22.01;56.40
72370;BME280;60343;-32.030;115.880;2023-04-09T00:49:09;101686.13;;;21.48;58.09
72370;BME280;60343;-32.030;115.880;2023-04-09T00:51:45;101688.34;;;21.01;59.43
72370;BME280;60343;-32.030;115.880;2023-04-09T00:54:25;101681.59;;;20.72;61.05
72370;BME280;60343;-32.030;115.880;2023-04-09T00:56:59;101682.22;;;20.68;61.23
72370;BME280;60343;-32.030;115.880;2023-04-09T00:59:34;101684.75;;;20.69;61.65
72370;BME280;60343;-32.030;115.880;2023-04-09T01:02:08;101681.91;;;20.89;60.63
72370;BME280;60343;-32.030;115.880;2023-04-09T01:04:44;101688.00;;;21.22;60.20
72370;BME280;60343;-32.030;115.880;2023-04-09T01:07:25;101692.59;;;22.14;58.18
72370;BME280;60343;-32.030;115.880;2023-04-09T01:10:18;101688.47;;;23.08;55.44
72370;BME280;60343;-32.030;115.880;2023-04-09T01:13:03;101690.72;;;23.76;52.52
72370;BME280;60343;-32.030;115.880;2023-04-09T01:15:45;101679.88;;;24.56;50.02
72370;BME280;60343;-32.030;115.880;2023-04-09T01:18:26;101677.25;;;23.98;49.99
72370;BME280;60343;-32.030;115.880;2023-04-09T01:21:05;101677.97;;;22.93;52.23
72370;BME280;60343;-32.030;115.880;2023-04-09T01:23:45;101674.44;;;22.27;54.50
72370;BME280;60343;-32.030;115.880;2023-04-09T01:26:40;101683.13;;;21.74;56.06
72370;BME280;60343;-32.030;115.880;2023-04-09T01:29:25;101673.59;;;21.40;57.05
72370;BME280;60343;-32.030;115.880;2023-04-09T01:32:05;101676.72;;;21.44;56.98
72370;BME280;60343;-32.030;115.880;2023-04-09T01:34:41;101667.09;;;22.75;53.52
72370;BME280;60343;-32.030;115.880;2023-04-09T01:37:17;101662.69;;;22.74;53.50
72370;BME280;60343;-32.030;115.880;2023-04-09T01:39:51;101659.56;;;22.41;54.42
72370;BME280;60343;-32.030;115.880;2023-04-09T01:42:26;101659.66;;;22.16;54.55
72370;BME280;60343;-32.030;115.880;2023-04-09T01:45:07;101651.47;;;21.73;55.71
72370;BME280;60343;-32.030;115.880;2023-04-09T01:47:44;101655.09;;;21.49;56.65
72370;BME280;60343;-32.030;115.880;2023-04-09T01:50:19;101650.66;;;21.29;57.37
72370;BME280;60343;-32.030;115.880;2023-04-09T01:52:54;101648.03;;;21.41;57.73
72370;BME280;60343;-32.030;115.880;2023-04-09T01:55:28;101653.19;;;21.92;56.54
72370;BME280;60343;-32.030;115.880;2023-04-09T01:58:03;101639.41;;;22.23;54.75
72370;BME280;60343;-32.030;115.880;2023-04-09T02:00:46;101643.84;;;22.06;55.94
72370;BME280;60343;-32.030;115.880;2023-04-09T02:03:23;101642.13;;;21.87;55.64
72370;BME280;60343;-32.030;115.880;2023-04-09T02:05:59;101638.78;;;21.67;55.80
72370;BME280;60343;-32.030;115.880;2023-04-09T02:08:37;101627.56;;;21.57;56.87
72370;BME280;60343;-32.030;115.880;2023-04-09T02:11:14;101622.34;;;21.55;57.58
72370;BME280;60343;-32.030;115.880;2023-04-09T02:13:49;101622.94;;;21.57;57.37
72370;BME280;60343;-32.030;115.880;2023-04-09T02:16:32;101618.97;;;21.53;57.38
72370;BME280;60343;-32.030;115.880;2023-04-09T02:19:07;101616.66;;;21.57;57.89
72370;BME280;60343;-32.030;115.880;2023-04-09T02:21:42;101611.13;;;21.63;56.63
72370;BME280;60343;-32.030;115.880;2023-04-09T02:24:16;101599.84;;;21.60;56.57
72370;BME280;60343;-32.030;115.880;2023-04-09T02:26:51;101607.44;;;21.58;57.21
72370;BME280;60343;-32.030;115.880;2023-04-09T02:29:25;101604.19;;;21.67;57.45
72370;BME280;60343;-32.030;115.880;2023-04-09T02:32:06;101607.91;;;21.91;55.26
72370;BME280;60343;-32.030;115.880;2023-04-09T02:34:41;101601.88;;;22.07;55.37
72370;BME280;60343;-32.030;115.880;2023-04-09T02:37:15;101608.88;;;22.15;54.45
72370;BME280;60343;-32.030;115.880;2023-04-09T02:39:51;101613.16;;;22.11;55.17
72370;BME280;60343;-32.030;115.880;2023-04-09T02:42:26;101610.06;;;22.07;54.92
72370;BME280;60343;-32.030;115.880;2023-04-09T02:45:00;101610.97;;;22.01;55.44
72370;BME280;60343;-32.030;115.880;2023-04-09T02:47:40;101605.66;;;22.06;55.86
72370;BME280;60343;-32.030;115.880;2023-04-09T02:50:15;101600.94;;;22.13;55.15
72370;BME280;60343;-32.030;115.880;2023-04-09T02:52:50;101593.97;;;22.17;55.07
72370;BME280;60343;-32.030;115.880;2023-04-09T02:55:25;101589.56;;;22.16;55.45
72370;BME280;60343;-32.030;115.880;2023-04-09T02:57:59;101581.97;;;22.37;54.98
72370;BME280;60343;-32.030;115.880;2023-04-09T03:00:34;101578.47;;;22.59;53.84
72370;BME280;60343;-32.030;115.880;2023-04-09T03:03:14;101577.59;;;22.89;53.71
72370;BME280;60343;-32.030;115.880;2023-04-09T03:05:49;101568.16;;;23.26;52.64
72370;BME280;60343;-32.030;115.880;2023-04-09T03:08:23;101561.63;;;23.62;51.31
72370;BME280;60343;-32.030;115.880;2023-04-09T03:10:58;101561.41;;;23.52;51.38
72370;BME280;60343;-32.030;115.880;2023-04-09T03:13:32;101570.63;;;23.39;51.37
72370;BME280;60343;-32.030;115.880;2023-04-09T03:16:07;101559.84;;;23.33;52.01
72370;BME280;60343;-32.030;115.880;2023-04-09T03:18:47;101561.28;;;23.24;51.92
72370;BME280;60343;-32.030;115.880;2023-04-09T03:21:23;101560.31;;;23.18;51.56
72370;BME280;60343;-32.030;115.880;2023-04-09T03:23:58;101559.50;;;23.18;52.56
72370;BME280;60343;-32.030;115.880;2023-04-09T03:26:33;101556.63;;;23.36;51.83
72370;BME280;60343;-32.030;115.880;2023-04-09T03:29:08;101553.66;;;23.37;52.20
72370;BME280;60343;-32.030;115.880;2023-04-09T03:31:43;101548.47;;;23.47;52.11
72370;BME280;60343;-32.030;115.880;2023-04-09T03:34:23;101543.06;;;23.64;51.29
72370;BME280;60343;-32.030;115.880;2023-04-09T03:36:58;101537.69;;;23.69;51.75
72370;BME280;60343;-32.030;115.880;2023-04-09T03:39:32;101539.00;;;23.78;52.25
72370;BME280;60343;-32.030;115.880;2023-04-09T03:42:07;101537.91;;;23.79;51.55
72370;BME280;60343;-32.030;115.880;2023-04-09T03:44:41;101539.47;;;23.75;50.26
72370;BME280;60343;-32.030;115.880;2023-04-09T03:47:16;101531.06;;;23.65;50.42
72370;BME280;60343;-32.030;115.880;2023-04-09T03:49:56;101521.69;;;23.49;50.99
72370;BME280;60343;-32.030;115.880;2023-04-09T03:52:31;101512.31;;;23.57;51.12
72370;BME280;60343;-32.030;115.880;2023-04-09T03:55:06;101509.47;;;23.52;51.03
72370;BME280;60343;-32.030;115.880;2023-04-09T03:57:41;101509.47;;;23.52;50.73
72370;BME280;60343;-32.030;115.880;2023-04-09T04:00:16;101510.88;;;23.55;50.88
72370;BME280;60343;-32.030;115.880;2023-04-09T04:02:50;101513.16;;;23.46;50.88
72370;BME280;60343;-32.030;115.880;2023-04-09T04:05:31;101512.09;;;23.47;50.99
72370;BME280;60343;-32.030;115.880;2023-04-09T04:08:05;101503.53;;;23.32;50.70
72370;BME280;60343;-32.030;115.880;2023-04-09T04:10:39;101502.81;;;23.25;51.51
72370;BME280;60343;-32.030;115.880;2023-04-09T04:13:14;101501.47;;;23.39;51.30
72370;BME280;60343;-32.030;115.880;2023-04-09T04:15:49;101488.78;;;23.56;50.87
72370;BME280;60343;-32.030;115.880;2023-04-09T04:18:23;101487.28;;;23.77;50.99
72370;BME280;60343;-32.030;115.880;2023-04-09T04:21:03;101481.50;;;23.73;50.48
72370;BME280;60343;-32.030;115.880;2023-04-09T04:23:38;101477.00;;;23.67;50.04
72370;BME280;60343;-32.030;115.880;2023-04-09T04:26:12;101475.31;;;23.66;49.76
72370;BME280;60343;-32.030;115.880;2023-04-09T04:28:47;101457.75;;;23.62;51.09
72370;BME280;60343;-32.030;115.880;2023-04-09T04:31:21;101460.84;;;23.54;51.23
72370;BME280;60343;-32.030;115.880;2023-04-09T04:33:56;101452.19;;;23.57;49.81
72370;BME280;60343;-32.030;115.880;2023-04-09T04:36:36;101454.56;;;23.54;51.10
72370;BME280;60343;-32.030;115.880;2023-04-09T04:39:10;101452.31;;;23.50;49.79
72370;BME280;60343;-32.030;115.880;2023-04-09T04:41:45;101447.28;;;23.59;50.12
72370;BME280;60343;-32.030;115.880;2023-04-09T04:44:19;101440.09;;;23.70;49.78
72370;BME280;60343;-32.030;115.880;2023-04-09T04:46:54;101439.53;;;23.68;49.65
72370;BME280;60343;-32.030;115.880;2023-04-09T04:49:28;101438.47;;;23.69;50.34
72370;BME280;60343;-32.030;115.880;2023-04-09T04:52:08;101435.53;;;23.59;49.72
72370;BME280;60343;-32.030;115.880;2023-04-09T04:54:43;101426.41;;;23.53;50.22
72370;BME280;60343;-32.030;115.880;2023-04-09T04:57:18;101428.75;;;23.61;48.65
72370;BME280;60343;-32.030;115.880;2023-04-09T04:59:52;101425.41;;;23.59;49.38
72370;BME280;60343;-32.030;115.880;2023-04-09T05:02:27;101424.91;;;23.74;49.57
72370;BME280;60343;-32.030;115.880;2023-04-09T05:05:01;101421.13;;;23.91;48.99
72370;BME280;60343;-32.030;115.880;2023-04-09T05:07:41;101410.03;;;24.15;48.03
72370;BME280;60343;-32.030;115.880;2023-04-09T05:10:16;101407.03;;;24.28;48.77
72370;BME280;60343;-32.030;115.880;2023-04-09T05:12:50;101406.59;;;24.53;48.00
72370;BME280;60343;-32.030;115.880;2023-04-09T05:15:25;101406.47;;;24.81;45.97
72370;BME280;60343;-32.030;115.880;2023-04-09T05:18:00;101397.09;;;24.77;46.51
72370;BME280;60343;-32.030;115.880;2023-04-09T05:20:34;101395.78;;;24.79;46.10
72370;BME280;60343;-32.030;115.880;2023-04-09T05:23:14;101399.19;;;24.70;45.41
72370;BME280;60343;-32.030;115.880;2023-04-09T05:25:49;101398.72;;;24.56;46.98
72370;BME280;60343;-32.030;115.880;2023-04-09T05:28:24;101392.16;;;24.57;46.73
72370;BME280;60343;-32.030;115.880;2023-04-09T05:30:59;101397.88;;;24.56;47.30
72370;BME280;60343;-32.030;115.880;2023-04-09T05:33:38;101393.75;;;24.53;47.29
72370;BME280;60343;-32.030;115.880;2023-04-09T05:36:15;101385.53;;;24.53;47.28
72370;BME280;60343;-32.030;115.880;2023-04-09T05:38:56;101392.59;;;24.49;46.34
72370;BME280;60343;-32.030;115.880;2023-04-09T05:41:30;101389.25;;;24.30;47.70
72370;BME280;60343;-32.030;115.880;2023-04-09T05:44:05;101392.22;;;24.12;48.13
72370;BME280;60343;-32.030;115.880;2023-04-09T05:46:40;101390.53;;;23.94;48.97
72370;BME280;60343;-32.030;115.880;2023-04-09T05:49:15;101390.13;;;23.86;49.91
72370;BME280;60343;-32.030;115.880;2023-04-09T05:51:50;101389.41;;;23.62;49.41
72370;BME280;60343;-32.030;115.880;2023-04-09T05:54:31;101381.47;;;23.49;50.45
72370;BME280;60343;-32.030;115.880;2023-04-09T05:57:06;101375.09;;;23.32;51.64
72370;BME280;60343;-32.030;115.880;2023-04-09T05:59:40;101376.56;;;24.24;50.61
72370;BME280;60343;-32.030;115.880;2023-04-09T06:02:15;101368.19;;;25.25;47.05
72370;BME280;60343;-32.030;115.880;2023-04-09T06:04:50;101361.69;;;26.11;43.47
72370;BME280;60343;-32.030;115.880;2023-04-09T06:07:24;101365.41;;;26.64;43.40
72370;BME280;60343;-32.030;115.880;2023-04-09T06:10:05;101362.59;;;26.96;41.67
72370;BME280;60343;-32.030;115.880;2023-04-09T06:12:40;101362.88;;;26.99;42.46
72370;BME280;60343;-32.030;115.880;2023-04-09T06:18:00;101360.75;;;26.64;42.34
72370;BME280;60343;-32.030;115.880;2023-04-09T06:20:36;101368.97;;;26.64;43.09
72370;BME280;60343;-32.030;115.880;2023-04-09T06:23:11;101359.00;;;26.90;42.73
72370;BME280;60343;-32.030;115.880;2023-04-09T06:25:51;101357.13;;;27.06;42.99
72370;BME280;60343;-32.030;115.880;2023-04-09T06:28:26;101357.41;;;26.62;42.96
72370;BME280;60343;-32.030;115.880;2023-04-09T06:31:01;101360.44;;;26.61;42.95
72370;BME280;60343;-32.030;115.880;2023-04-09T06:33:36;101357.69;;;26.61;43.54
72370;BME280;60343;-32.030;115.880;2023-04-09T06:36:10;101360.28;;;26.82;42.34
72370;BME280;60343;-32.030;115.880;2023-04-09T06:38:45;101352.53;;;26.69;42.93
72370;BME280;60343;-32.030;115.880;2023-04-09T06:41:26;101350.56;;;26.65;42.08
72370;BME280;60343;-32.030;115.880;2023-04-09T06:44:01;101333.50;;;26.58;42.23
72370;BME280;60343;-32.030;115.880;2023-04-09T06:46:35;101338.94;;;26.89;42.43
72370;BME280;60343;-32.030;115.880;2023-04-09T06:49:10;101329.88;;;26.94;42.12
72370;BME280;60343;-32.030;115.880;2023-04-09T06:51:44;101339.00;;;27.05;41.19
72370;BME280;60343;-32.030;115.880;2023-04-09T06:54:20;101336.84;;;27.22;41.11
72370;BME280;60343;-32.030;115.880;2023-04-09T06:57:00;101344.19;;;27.06;41.44
72370;BME280;60343;-32.030;115.880;2023-04-09T06:59:34;101346.94;;;27.06;42.08
72370;BME280;60343;-32.030;115.880;2023-04-09T07:02:09;101349.84;;;26.79;43.62
72370;BME280;60343;-32.030;115.880;2023-04-09T07:04:44;101355.13;;;26.91;42.07
72370;BME280;60343;-32.030;115.880;2023-04-09T07:07:18;101357.97;;;26.59;43.04
72370;BME280;60343;-32.030;115.880;2023-04-09T07:09:53;101353.19;;;26.44;43.17
72370;BME280;60343;-32.030;115.880;2023-04-09T07:12:34;101352.75;;;26.63;44.54
72370;BME280;60343;-32.030;115.880;2023-04-09T07:15:09;101347.53;;;26.66;44.65
72370;BME280;60343;-32.030;115.880;2023-04-09T07:17:43;101352.94;;;27.55;41.63
72370;BME280;60343;-32.030;115.880;2023-04-09T07:20:18;101344.88;;;27.44;43.44
72370;BME280;60343;-32.030;115.880;2023-04-09T07:22:52;101339.47;;;27.69;42.13
72370;BME280;60343;-32.030;115.880;2023-04-09T07:25:27;101341.84;;;27.40;43.04
72370;BME280;60343;-32.030;115.880;2023-04-09T07:28:07;101346.88;;;26.91;44.31
72370;BME280;60343;-32.030;115.880;2023-04-09T07:30:42;101336.53;;;26.61;45.28
72370;BME280;60343;-32.030;115.880;2023-04-09T07:33:16;101334.81;;;26.92;44.03
72370;BME280;60343;-32.030;115.880;2023-04-09T07:35:51;101337.53;;;26.87;43.95
72370;BME280;60343;-32.030;115.880;2023-04-09T07:38:28;101317.25;;;26.98;44.15
72370;BME280;60343;-32.030;115.880;2023-04-09T07:41:02;101318.25;;;26.03;45.99
72370;BME280;60343;-32.030;115.880;2023-04-09T07:43:42;101310.84;;;26.03;45.95
72370;BME280;60343;-32.030;115.880;2023-04-09T07:46:20;101313.94;;;26.12;45.41
72370;BME280;60343;-32.030;115.880;2023-04-09T07:48:55;101317.97;;;25.99;45.86
72370;BME280;60343;-32.030;115.880;2023-04-09T07:51:29;101307.38;;;25.54;47.38
72370;BME280;60343;-32.030;115.880;2023-04-09T07:54:04;101317.03;;;25.35;47.35
72370;BME280;60343;-32.030;115.880;2023-04-09T07:56:38;101313.38;;;25.03;48.62
72370;BME280;60343;-32.030;115.880;2023-04-09T07:59:18;101319.34;;;24.95;48.84
72370;BME280;60343;-32.030;115.880;2023-04-09T08:01:54;101318.81;;;24.81;48.90
72370;BME280;60343;-32.030;115.880;2023-04-09T08:04:29;101317.16;;;24.58;50.28
72370;BME280;60343;-32.030;115.880;2023-04-09T08:07:04;101319.91;;;24.58;50.04
72370;BME280;60343;-32.030;115.880;2023-04-09T08:09:38;101317.34;;;24.52;49.71
72370;BME280;60343;-32.030;115.880;2023-04-09T08:12:13;101311.34;;;24.55;50.02
72370;BME280;60343;-32.030;115.880;2023-04-09T08:14:53;101314.97;;;24.22;50.86
72370;BME280;60343;-32.030;115.880;2023-04-09T08:17:30;101304.78;;;24.34;50.93
72370;BME280;60343;-32.030;115.880;2023-04-09T08:20:05;101303.88;;;24.28;50.45
72370;BME280;60343;-32.030;115.880;2023-04-09T08:22:40;101316.44;;;24.13;50.80
72370;BME280;60343;-32.030;115.880;2023-04-09T08:25:15;101316.13;;;23.92;51.89
72370;BME280;60343;-32.030;115.880;2023-04-09T08:27:50;101333.50;;;23.86;51.82
72370;BME280;60343;-32.030;115.880;2023-04-09T08:30:30;101339.22;;;23.68;52.37
72370;BME280;60343;-32.030;115.880;2023-04-09T08:33:04;101344.69;;;23.68;52.67
72370;BME280;60343;-32.030;115.880;2023-04-09T08:35:39;101350.53;;;23.60;53.57
72370;BME280;60343;-32.030;115.880;2023-04-09T08:38:14;101349.66;;;23.43;53.52
72370;BME280;60343;-32.030;115.880;2023-04-09T08:40:48;101351.69;;;23.36;53.92
72370;BME280;60343;-32.030;115.880;2023-04-09T08:43:24;101355.03;;;23.26;54.63
72370;BME280;60343;-32.030;115.880;2023-04-09T08:46:07;101353.25;;;23.32;54.35
72370;BME280;60343;-32.030;115.880;2023-04-09T08:48:44;101353.38;;;23.25;53.90
72370;BME280;60343;-32.030;115.880;2023-04-09T08:51:20;101347.88;;;23.08;54.39
72370;BME280;60343;-32.030;115.880;2023-04-09T08:53:57;101346.34;;;22.89;54.87
72370;BME280;60343;-32.030;115.880;2023-04-09T08:56:32;101362.16;;;22.87;55.12
72370;BME280;60343;-32.030;115.880;2023-04-09T08:59:06;101360.75;;;22.73;55.67
72370;BME280;60343;-32.030;115.880;2023-04-09T09:01:46;101347.91;;;22.62;55.96
72370;BME280;60343;-32.030;115.880;2023-04-09T09:04:21;101335.59;;;22.48;56.67
72370;BME280;60343;-32.030;115.880;2023-04-09T09:07:06;101338.66;;;22.51;56.72
72370;BME280;60343;-32.030;115.880;2023-04-09T09:09:55;101340.31;;;22.41;56.91
72370;BME280;60343;-32.030;115.880;2023-04-09T09:12:38;101345.78;;;22.29;57.40
72370;BME280;60343;-32.030;115.880;2023-04-09T09:15:26;101353.25;;;22.22;57.49
72370;BME280;60343;-32.030;115.880;2023-04-09T09:18:06;101359.31;;;22.36;57.24
72370;BME280;60343;-32.030;115.880;2023-04-09T09:20:41;101362.97;;;22.18;57.44
72370;BME280;60343;-32.030;115.880;2023-04-09T09:23:15;101358.91;;;21.97;58.48
72370;BME280;60343;-32.030;115.880;2023-04-09T09:26:12;101360.53;;;21.98;58.54
72370;BME280;60343;-32.030;115.880;2023-04-09T09:28:47;101356.94;;;21.86;58.46
72370;BME280;60343;-32.030;115.880;2023-04-09T09:31:23;101359.13;;;21.66;59.31
72370;BME280;60343;-32.030;115.880;2023-04-09T09:34:08;101367.66;;;21.58;59.83
72370;BME280;60343;-32.030;115.880;2023-04-09T09:36:43;101374.09;;;21.45;60.29
72370;BME280;60343;-32.030;115.880;2023-04-09T09:39:18;101363.41;;;21.62;59.76
72370;BME280;60343;-32.030;115.880;2023-04-09T09:42:07;101363.38;;;21.32;60.70
72370;BME280;60343;-32.030;115.880;2023-04-09T09:44:41;101363.91;;;21.40;60.74
72370;BME280;60343;-32.030;115.880;2023-04-09T09:47:18;101363.94;;;21.22;61.39
72370;BME280;60343;-32.030;115.880;2023-04-09T09:49:59;101354.00;;;21.10;61.78
72370;BME280;60343;-32.030;115.880;2023-04-09T09:52:34;101371.22;;;21.04;62.19
72370;BME280;60343;-32.030;115.880;2023-04-09T09:55:13;101375.09;;;20.96;62.66
72370;BME280;60343;-32.030;115.880;2023-04-09T09:57:50;101370.47;;;20.78;62.96
72370;BME280;60343;-32.030;115.880;2023-04-09T10:00:27;101377.63;;;20.73;63.41
72370;BME280;60343;-32.030;115.880;2023-04-09T10:03:09;101376.59;;;20.55;64.28
72370;BME280;60343;-32.030;115.880;2023-04-09T10:05:51;101379.72;;;20.52;64.08
72370;BME280;60343;-32.030;115.880;2023-04-09T10:08:26;101370.25;;;20.62;63.77
72370;BME280;60343;-32.030;115.880;2023-04-09T10:11:02;101371.50;;;20.59;63.90
72370;BME280;60343;-32.030;115.880;2023-04-09T10:13:40;101371.81;;;20.51;64.27
72370;BME280;60343;-32.030;115.880;2023-04-09T10:16:19;101361.19;;;20.43;64.91
72370;BME280;60343;-32.030;115.880;2023-04-09T10:18:56;101365.06;;;20.35;64.96
72370;BME280;60343;-32.030;115.880;2023-04-09T10:21:41;101370.28;;;20.37;64.91
72370;BME280;60343;-32.030;115.880;2023-04-09T10:24:17;101364.22;;;20.28;64.97
72370;BME280;60343;-32.030;115.880;2023-04-09T10:26:54;101362.53;;;20.09;65.54
72370;BME280;60343;-32.030;115.880;2023-04-09T10:29:28;101369.66;;;20.03;66.02
72370;BME280;60343;-32.030;115.880;2023-04-09T10:32:06;101364.53;;;20.20;64.88
72370;BME280;60343;-32.030;115.880;2023-04-09T10:34:41;101366.13;;;20.03;65.84
72370;BME280;60343;-32.030;115.880;2023-04-09T10:37:23;101361.72;;;20.02;65.88
72370;BME280;60343;-32.030;115.880;2023-04-09T10:39:58;101364.84;;;19.81;66.71
72370;BME280;60343;-32.030;115.880;2023-04-09T10:42:36;101367.75;;;19.79;67.01
72370;BME280;60343;-32.030;115.880;2023-04-09T10:45:13;101372.19;;;19.74;67.13
72370;BME280;60343;-32.030;115.880;2023-04-09T10:47:50;101374.34;;;19.58;67.29
72370;BME280;60343;-32.030;115.880;2023-04-09T10:50:25;101376.66;;;19.61;67.99
72370;BME280;60343;-32.030;115.880;2023-04-09T10:53:12;101377.06;;;19.58;68.02
72370;BME280;60343;-32.030;115.880;2023-04-09T10:55:55;101388.41;;;19.42;68.27
72370;BME280;60343;-32.030;115.880;2023-04-09T10:58:29;101395.50;;;19.43;68.76
72370;BME280;60343;-32.030;115.880;2023-04-09T11:01:04;101396.81;;;19.34;69.00
72370;BME280;60343;-32.030;115.880;2023-04-09T11:03:44;101399.16;;;19.24;69.29
72370;BME280;60343;-32.030;115.880;2023-04-09T11:06:20;101401.00;;;19.30;69.17
72370;BME280;60343;-32.030;115.880;2023-04-09T11:09:01;101396.03;;;19.20;69.32
72370;BME280;60343;-32.030;115.880;2023-04-09T11:11:36;101391.63;;;19.26;69.33
72370;BME280;60343;-32.030;115.880;2023-04-09T11:14:10;101386.03;;;19.08;70.15
72370;BME280;60343;-32.030;115.880;2023-04-09T11:16:53;101392.97;;;18.97;70.34
72370;BME280;60343;-32.030;115.880;2023-04-09T11:19:27;101386.75;;;18.90;70.65
72370;BME280;60343;-32.030;115.880;2023-04-09T11:22:03;101396.75;;;18.83;70.68
72370;BME280;60343;-32.030;115.880;2023-04-09T11:24:46;101391.53;;;18.81;70.78
72370;BME280;60343;-32.030;115.880;2023-04-09T11:27:21;101392.41;;;18.69;71.27
72370;BME280;60343;-32.030;115.880;2023-04-09T11:29:56;101393.69;;;18.60;71.41
72370;BME280;60343;-32.030;115.880;2023-04-09T11:32:31;101394.28;;;18.49;71.74
72370;BME280;60343;-32.030;115.880;2023-04-09T11:35:11;101393.47;;;18.35;71.98
72370;BME280;60343;-32.030;115.880;2023-04-09T11:37:49;101394.91;;;18.24;72.26
72370;BME280;60343;-32.030;115.880;2023-04-09T11:40:29;101397.84;;;18.23;72.30
72370;BME280;60343;-32.030;115.880;2023-04-09T11:43:06;101393.22;;;18.17;72.31
72370;BME280;60343;-32.030;115.880;2023-04-09T11:45:42;101385.94;;;18.17;72.83
72370;BME280;60343;-32.030;115.880;2023-04-09T11:48:17;101383.66;;;18.14;72.95
72370;BME280;60343;-32.030;115.880;2023-04-09T11:50:52;101374.06;;;18.12;72.74
72370;BME280;60343;-32.030;115.880;2023-04-09T11:53:30;101376.97;;;18.04;73.40
72370;BME280;60343;-32.030;115.880;2023-04-09T11:56:12;101380.09;;;17.94;73.60
72370;BME280;60343;-32.030;115.880;2023-04-09T11:58:47;101379.25;;;17.87;74.04
72370;BME280;60343;-32.030;115.880;2023-04-09T12:01:22;101384.03;;;17.78;74.09
72370;BME280;60343;-32.030;115.880;2023-04-09T12:03:58;101385.25;;;17.69;74.69
72370;BME280;60343;-32.030;115.880;2023-04-09T12:06:33;101395.22;;;17.62;74.63
72370;BME280;60343;-32.030;115.880;2023-04-09T12:09:13;101391.06;;;17.60;74.62
72370;BME280;60343;-32.030;115.880;2023-04-09T12:11:53;101396.00;;;17.56;74.83
72370;BME280;60343;-32.030;115.880;2023-04-09T12:14:28;101410.16;;;17.51;75.16
72370;BME280;60343;-32.030;115.880;2023-04-09T12:17:03;101411.41;;;17.49;75.37
72370;BME280;60343;-32.030;115.880;2023-04-09T12:19:38;101406.84;;;17.49;75.05
72370;BME280;60343;-32.030;115.880;2023-04-09T12:22:12;101399.75;;;17.48;75.48
72370;BME280;60343;-32.030;115.880;2023-04-09T12:24:47;101409.31;;;17.51;75.79
72370;BME280;60343;-32.030;115.880;2023-04-09T12:27:27;101403.72;;;17.52;75.68
72370;BME280;60343;-32.030;115.880;2023-04-09T12:30:02;101422.06;;;17.57;75.57
72370;BME280;60343;-32.030;115.880;2023-04-09T12:32:37;101411.91;;;17.59;75.08
72370;BME280;60343;-32.030;115.880;2023-04-09T12:35:12;101421.47;;;17.62;75.06
72370;BME280;60343;-32.030;115.880;2023-04-09T12:37:47;101424.41;;;17.60;75.59
72370;BME280;60343;-32.030;115.880;2023-04-09T12:40:22;101431.28;;;17.63;75.54
72370;BME280;60343;-32.030;115.880;2023-04-09T12:43:02;101430.66;;;17.67;75.69
72370;BME280;60343;-32.030;115.880;2023-04-09T12:45:37;101425.53;;;17.85;75.47
72370;BME280;60343;-32.030;115.880;2023-04-09T12:48:12;101420.50;;;17.89;75.17
72370;BME280;60343;-32.030;115.880;2023-04-09T12:50:47;101420.50;;;17.82;75.03
72370;BME280;60343;-32.030;115.880;2023-04-09T12:53:21;101423.63;;;17.79;75.17
72370;BME280;60343;-32.030;115.880;2023-04-09T12:56:06;101420.06;;;17.79;74.98
72370;BME280;60343;-32.030;115.880;2023-04-09T12:58:47;101426.72;;;17.70;75.70
72370;BME280;60343;-32.030;115.880;2023-04-09T13:01:21;101436.88;;;17.61;75.75
72370;BME280;60343;-32.030;115.880;2023-04-09T13:03:56;101443.59;;;17.65;75.84
72370;BME280;60343;-32.030;115.880;2023-04-09T13:06:31;101441.00;;;17.57;76.13
72370;BME280;60343;-32.030;115.880;2023-04-09T13:09:05;101429.53;;;17.48;76.50
72370;BME280;60343;-32.030;115.880;2023-04-09T13:11:39;101426.97;;;17.40;76.27